createdAt,value
2022-08-16T00:01:33.988Z,20.02
2022-08-16T00:04:01.985Z,19.88
2022-08-16T00:06:33.410Z,20.08
2022-08-16T00:09:02.272Z,20.17
2022-08-16T00:11:29.826Z,20.12
2022-08-16T00:13:57.486Z,20.10
2022-08-16T00:17:01.068Z,20.13
2022-08-16T00:19:14.021Z,19.97
2022-08-16T00:21:42.348Z,20.11
2022-08-16T00:24:12.695Z,20.08
2022-08-16T00:26:43.938Z,20.12
2022-08-16T00:29:13.421Z,20.23
2022-08-16T00:31:59.435Z,20.14
2022-08-16T00:34:44.726Z,20.33
2022-08-16T00:37:20.227Z,20.24
2022-08-16T00:39:58.278Z,20.16
2022-08-16T00:42:30.595Z,20.06
2022-08-16T00:45:06.448Z,20.02
2022-08-16T00:47:38.269Z,20.04
2022-08-16T00:50:11.356Z,19.94
2022-08-16T00:52:45.981Z,20.06
2022-08-16T00:55:21.901Z,20.02
2022-08-16T00:58:00.200Z,20.14
2022-08-16T01:00:30.028Z,20.05
2022-08-16T01:02:59.629Z,19.99
2022-08-16T01:05:27.480Z,19.73
2022-08-16T01:07:57.326Z,19.89
2022-08-16T01:10:32.549Z,19.87
2022-08-16T01:13:01.931Z,19.99
2022-08-16T01:15:32.883Z,20.05
2022-08-16T01:18:01.365Z,20.11
2022-08-16T01:20:32.834Z,20.01
2022-08-16T01:23:08.451Z,20.15
2022-08-16T01:25:40.365Z,20.31
2022-08-16T01:28:09.219Z,20.32
2022-08-16T01:30:39.870Z,20.49
2022-08-16T01:33:19.229Z,20.55
2022-08-16T01:35:52.516Z,20.58
2022-08-16T01:38:25.976Z,20.56
2022-08-16T01:41:01.794Z,20.52
2022-08-16T01:43:31.453Z,20.38
2022-08-16T01:46:29.779Z,20.47
2022-08-16T01:48:49.438Z,20.40
2022-08-16T01:51:18.058Z,20.38
2022-08-16T01:53:54.674Z,20.32
2022-08-16T01:56:30.312Z,20.25
2022-08-16T01:59:04.596Z,20.27
2022-08-16T02:01:34.559Z,20.32
2022-08-16T02:04:06.190Z,20.25
2022-08-16T02:06:40.278Z,20.09
2022-08-16T02:09:17.832Z,20.23
2022-08-16T02:11:53.165Z,20.19
2022-08-16T02:14:26.496Z,20.21
2022-08-16T02:16:57.380Z,19.99
2022-08-16T02:19:58.510Z,20.16
2022-08-16T02:22:33.667Z,20.24
2022-08-16T02:25:04.906Z,20.11
2022-08-16T02:27:34.891Z,20.04
2022-08-16T02:30:07.585Z,20.08
2022-08-16T02:32:49.878Z,20.16
2022-08-16T02:35:23.239Z,20.10
2022-08-16T02:37:52.854Z,20.01
2022-08-16T02:40:23.781Z,20.25
2022-08-16T02:42:56.359Z,20.22
2022-08-16T02:45:28.012Z,20.31
2022-08-16T02:48:01.029Z,20.36
2022-08-16T02:50:53.873Z,20.41
2022-08-16T02:53:30.853Z,20.40
2022-08-16T02:55:59.177Z,20.32
2022-08-16T02:58:33.671Z,20.31
2022-08-16T03:01:02.012Z,20.27
2022-08-16T03:04:29.144Z,20.29
2022-08-16T03:06:41.565Z,20.23
2022-08-16T03:09:16.376Z,20.30
2022-08-16T03:11:48.762Z,20.31
2022-08-16T03:14:21.296Z,20.28
2022-08-16T03:16:59.964Z,20.29
2022-08-16T03:19:48.217Z,20.06
2022-08-16T03:22:27.958Z,19.88
2022-08-16T03:25:01.187Z,19.76
2022-08-16T03:27:32.274Z,19.86
2022-08-16T03:30:16.179Z,19.81
2022-08-16T03:32:51.579Z,20.08
2022-08-16T03:35:21.254Z,19.77
2022-08-16T03:38:02.462Z,20.01
2022-08-16T03:40:36.422Z,19.62
2022-08-16T03:43:20.715Z,19.70
2022-08-16T03:45:53.755Z,19.64
2022-08-16T03:48:39.792Z,19.58
2022-08-16T03:51:14.071Z,19.46
2022-08-16T03:54:00.701Z,19.03
2022-08-16T03:56:30.505Z,18.97
2022-08-16T03:58:58.974Z,18.86
2022-08-16T04:01:32.105Z,18.47
2022-08-16T04:04:01.530Z,18.65
2022-08-16T04:06:30.295Z,17.98
2022-08-16T04:08:57.925Z,18.30
2022-08-16T04:11:25.501Z,18.38
2022-08-16T04:14:00.236Z,18.33
2022-08-16T04:16:42.408Z,18.33
2022-08-16T04:19:31.601Z,18.29
2022-08-16T04:22:00.661Z,18.35
2022-08-16T04:24:31.543Z,18.38
2022-08-16T04:26:59.737Z,18.28
2022-08-16T04:29:27.816Z,18.20
2022-08-16T04:32:13.751Z,17.85
2022-08-16T04:34:43.373Z,17.88
2022-08-16T04:37:12.501Z,18.03
2022-08-16T04:39:47.175Z,18.07
2022-08-16T04:42:26.535Z,17.82
2022-08-16T04:44:58.277Z,17.96
2022-08-16T04:47:35.585Z,17.79
2022-08-16T04:50:10.348Z,18.10
2022-08-16T04:52:38.916Z,18.25
2022-08-16T04:55:09.889Z,17.97
2022-08-16T04:57:41.220Z,18.21
2022-08-16T05:00:30.495Z,17.98
2022-08-16T05:03:09.473Z,18.17
2022-08-16T05:05:59.007Z,18.32
2022-08-16T05:08:33.000Z,18.47
2022-08-16T05:11:13.370Z,18.62
2022-08-16T05:13:43.031Z,18.71
2022-08-16T05:16:21.568Z,18.80
2022-08-16T05:18:58.431Z,18.94
2022-08-16T05:21:38.024Z,19.02
2022-08-16T05:24:09.650Z,19.12
2022-08-16T05:26:40.991Z,19.13
2022-08-16T05:29:15.279Z,19.38
2022-08-16T05:31:53.175Z,19.38
2022-08-16T05:34:22.757Z,19.73
2022-08-16T05:36:57.220Z,19.76
2022-08-16T05:39:29.391Z,19.67
2022-08-16T05:42:01.146Z,19.86
2022-08-16T05:44:29.109Z,20.00
2022-08-16T05:47:00.805Z,20.16
2022-08-16T05:49:39.277Z,20.23
2022-08-16T05:52:11.555Z,20.29
2022-08-16T05:54:46.577Z,20.55
2022-08-16T05:57:15.214Z,20.64
2022-08-16T05:59:42.930Z,20.80
2022-08-16T06:02:10.829Z,20.80
2022-08-16T06:04:44.992Z,20.86
2022-08-16T06:07:24.680Z,21.19
2022-08-16T06:10:05.115Z,21.31
2022-08-16T06:12:35.545Z,21.46
2022-08-16T06:15:10.178Z,21.42
2022-08-16T06:17:42.610Z,21.72
2022-08-16T06:20:18.591Z,21.59
2022-08-16T06:22:58.740Z,21.70
2022-08-16T06:25:39.740Z,21.88
2022-08-16T06:28:17.125Z,22.25
2022-08-16T06:30:58.548Z,22.50
2022-08-16T06:33:26.203Z,22.59
2022-08-16T06:35:59.574Z,22.78
2022-08-16T06:38:33.739Z,23.26
2022-08-16T06:41:13.608Z,23.74
2022-08-16T06:43:42.359Z,23.69
2022-08-16T06:46:32.057Z,24.00
2022-08-16T06:49:05.232Z,24.23
2022-08-16T06:51:46.089Z,24.42
2022-08-16T06:54:18.901Z,24.47
2022-08-16T06:56:46.602Z,25.13
2022-08-16T06:59:15.613Z,25.49
2022-08-16T07:01:53.422Z,26.17
2022-08-16T07:04:32.473Z,26.54
2022-08-16T07:07:09.892Z,26.95
2022-08-16T07:09:38.507Z,27.50
2022-08-16T07:12:07.050Z,27.78
2022-08-16T07:14:38.939Z,28.09
2022-08-16T07:17:08.150Z,27.71
2022-08-16T07:20:02.801Z,28.67
2022-08-16T07:22:52.887Z,28.60
2022-08-16T07:25:28.203Z,28.88
2022-08-16T07:27:55.886Z,28.61
2022-08-16T07:30:45.663Z,28.65
2022-08-16T07:33:51.899Z,28.75
2022-08-16T07:36:23.173Z,29.30
2022-08-16T07:38:53.827Z,29.67
2022-08-16T07:41:23.039Z,29.75
2022-08-16T07:43:57.844Z,29.86
2022-08-16T07:46:38.470Z,28.67
2022-08-16T07:49:15.568Z,27.71
2022-08-16T07:51:46.724Z,27.34
2022-08-16T07:54:21.344Z,26.91
2022-08-16T07:57:07.836Z,27.85
2022-08-16T07:59:46.295Z,27.12
2022-08-16T08:02:20.128Z,26.72
2022-08-16T08:04:53.776Z,26.16
2022-08-16T08:07:21.633Z,26.52
2022-08-16T08:09:53.313Z,26.86
2022-08-16T08:12:32.171Z,27.69
2022-08-16T08:15:05.830Z,28.38
2022-08-16T08:17:42.517Z,28.67
2022-08-16T08:20:20.846Z,28.75
2022-08-16T08:22:59.949Z,27.97
2022-08-16T08:25:54.917Z,28.24
2022-08-16T08:28:19.868Z,28.60
2022-08-16T08:31:01.048Z,28.55
2022-08-16T08:33:32.303Z,28.93
2022-08-16T08:36:04.890Z,29.23
2022-08-16T08:38:44.119Z,29.57
2022-08-16T08:41:15.279Z,29.26
2022-08-16T08:43:46.671Z,29.37
2022-08-16T08:46:18.191Z,29.64
2022-08-16T08:48:59.869Z,29.76
2022-08-16T08:51:37.188Z,30.23
2022-08-16T08:54:09.763Z,30.11
2022-08-16T08:56:45.510Z,30.25
2022-08-16T08:59:28.654Z,30.60
2022-08-16T09:01:58.613Z,30.87
2022-08-16T09:04:31.438Z,30.86
2022-08-16T09:07:01.332Z,30.55
2022-08-16T09:09:33.516Z,30.35
2022-08-16T09:12:06.986Z,30.29
2022-08-16T09:14:50.939Z,30.06
2022-08-16T09:17:45.478Z,30.91
2022-08-16T09:20:14.382Z,30.69
2022-08-16T09:22:51.330Z,30.64
2022-08-16T09:25:26.228Z,30.26
2022-08-16T09:27:58.008Z,30.49
2022-08-16T09:30:43.251Z,30.47
2022-08-16T09:33:14.454Z,30.59
2022-08-16T09:35:42.817Z,31.09
2022-08-16T09:38:12.167Z,30.64
2022-08-16T09:40:42.614Z,30.51
2022-08-16T09:43:46.468Z,30.34
2022-08-16T09:46:02.659Z,30.61
2022-08-16T09:48:44.182Z,30.59
2022-08-16T09:51:18.281Z,30.97
2022-08-16T09:53:53.978Z,31.10
2022-08-16T09:56:27.557Z,31.15
2022-08-16T09:59:03.790Z,31.20
2022-08-16T10:01:33.584Z,31.51
2022-08-16T10:04:04.076Z,31.55
2022-08-16T10:06:33.499Z,31.01
2022-08-16T10:09:05.347Z,31.37
2022-08-16T10:11:51.738Z,31.59
2022-08-16T10:14:24.463Z,31.45
2022-08-16T10:16:59.764Z,31.57
2022-08-16T10:19:29.833Z,31.38
2022-08-16T10:22:05.048Z,31.78
2022-08-16T10:24:32.969Z,32.10
2022-08-16T10:27:18.803Z,31.74
2022-08-16T10:30:01.189Z,31.94
2022-08-16T10:32:35.267Z,32.09
2022-08-16T10:35:03.673Z,31.73
2022-08-16T10:37:32.499Z,31.83
2022-08-16T10:40:06.151Z,31.56
2022-08-16T10:42:53.733Z,31.72
2022-08-16T10:45:23.027Z,31.47
2022-08-16T10:48:00.543Z,31.39
2022-08-16T10:50:32.276Z,31.21
2022-08-16T10:52:59.890Z,31.69
2022-08-16T10:55:46.098Z,31.73
2022-08-16T10:58:17.131Z,31.28
2022-08-16T11:00:47.162Z,31.78
2022-08-16T11:06:06.410Z,31.74
2022-08-16T11:08:39.630Z,31.44
2022-08-16T11:11:18.514Z,32.31
2022-08-16T11:14:11.059Z,32.92
2022-08-16T11:19:28.336Z,33.21
2022-08-16T11:22:38.560Z,33.00
2022-08-16T11:24:46.093Z,33.20
2022-08-16T11:27:36.038Z,33.26
2022-08-16T11:30:19.846Z,33.70
2022-08-16T11:32:49.414Z,33.58
2022-08-16T11:35:19.030Z,33.45
2022-08-16T11:38:46.978Z,32.66
2022-08-16T11:41:00.171Z,33.18
2022-08-16T11:43:30.057Z,33.48
2022-08-16T11:46:01.479Z,33.94
2022-08-16T11:48:49.977Z,34.21
2022-08-16T11:51:17.543Z,33.88
2022-08-16T11:53:45.741Z,33.89
2022-08-16T11:56:14.919Z,34.37
2022-08-16T11:58:42.645Z,34.69
2022-08-16T12:01:29.946Z,34.15
2022-08-16T12:04:11.076Z,33.76
2022-08-16T12:06:41.407Z,34.23
2022-08-16T12:09:10.125Z,34.95
2022-08-16T12:11:40.363Z,34.17
2022-08-16T12:14:11.396Z,32.90
2022-08-16T12:16:38.989Z,32.43
2022-08-16T12:19:17.794Z,33.36
2022-08-16T12:21:58.859Z,33.65
2022-08-16T12:24:28.134Z,34.20
2022-08-16T12:26:55.938Z,34.42
2022-08-16T12:29:25.859Z,34.07
2022-08-16T14:12:55.860Z,35.31
2022-08-16T14:15:23.575Z,35.71
2022-08-16T14:18:17.124Z,36.22
2022-08-16T14:20:39.357Z,37.02
2022-08-16T14:23:24.465Z,37.71
2022-08-16T14:25:53.906Z,37.99
2022-08-16T14:28:25.822Z,38.29
2022-08-16T14:30:54.270Z,37.97
2022-08-16T14:33:22.312Z,37.53
2022-08-16T14:35:50.842Z,37.24
2022-08-16T14:38:23.504Z,37.26
2022-08-16T14:40:55.155Z,36.86
2022-08-16T14:43:24.841Z,37.05
2022-08-16T14:45:54.887Z,37.33
2022-08-16T14:48:26.052Z,36.79
2022-08-16T14:50:54.676Z,36.36
2022-08-16T14:53:23.796Z,35.44
2022-08-16T14:55:51.391Z,36.05
2022-08-16T14:58:20.250Z,36.34
2022-08-16T15:01:04.553Z,35.88
2022-08-16T15:03:32.931Z,36.08
2022-08-16T15:06:01.823Z,35.85
2022-08-16T15:08:36.231Z,34.86
2022-08-16T15:11:05.966Z,35.15
2022-08-16T15:13:42.914Z,35.79
2022-08-16T15:16:14.278Z,36.31
2022-08-16T15:18:41.905Z,36.80
2022-08-16T15:21:14.334Z,36.40
2022-08-16T15:23:42.015Z,35.53
2022-08-16T15:26:10.993Z,34.04
2022-08-16T15:28:46.415Z,34.86
2022-08-16T15:31:16.092Z,35.12
2022-08-16T15:33:55.093Z,33.97
2022-08-16T15:36:25.934Z,34.70
2022-08-16T15:39:05.793Z,34.90
2022-08-16T15:42:07.105Z,35.95
2022-08-16T15:44:51.297Z,36.24
2022-08-16T15:47:26.241Z,36.50
2022-08-16T15:49:55.564Z,36.54
2022-08-16T15:52:29.448Z,36.22
2022-08-16T15:55:13.279Z,36.07
2022-08-16T15:57:53.993Z,36.18
2022-08-16T16:00:26.713Z,36.01
2022-08-16T16:03:08.496Z,35.17
2022-08-16T16:05:37.289Z,33.84
2022-08-16T16:08:10.850Z,33.02
2022-08-16T16:10:43.247Z,33.39
2022-08-16T16:13:15.421Z,33.58
2022-08-16T16:15:45.711Z,33.82
2022-08-16T16:18:15.799Z,33.06
2022-08-16T16:20:47.335Z,33.93
2022-08-16T16:23:23.445Z,34.14
2022-08-16T16:25:51.571Z,34.04
2022-08-16T16:28:51.397Z,33.88
2022-08-16T16:31:12.311Z,32.41
2022-08-16T16:33:44.323Z,32.49
2022-08-16T16:36:15.048Z,32.25
2022-08-16T16:38:45.510Z,31.83
2022-08-16T16:41:13.742Z,31.33
2022-08-16T16:43:44.395Z,31.17
2022-08-16T16:46:40.651Z,30.81
2022-08-16T16:49:08.508Z,30.37
2022-08-16T16:51:40.367Z,29.96
2022-08-16T16:54:12.862Z,29.78
2022-08-16T16:56:49.857Z,29.67
2022-08-16T16:59:28.034Z,29.37
2022-08-16T17:02:01.464Z,29.30
2022-08-16T17:04:48.017Z,28.99
2022-08-16T17:07:16.359Z,29.01
2022-08-16T17:09:45.568Z,29.01
2022-08-16T17:12:25.445Z,28.86
2022-08-16T17:15:01.221Z,28.76
2022-08-16T17:17:58.976Z,28.73
2022-08-16T17:20:22.510Z,28.60
2022-08-16T17:22:54.715Z,28.53
2022-08-16T17:25:24.094Z,28.31
2022-08-16T17:27:54.558Z,28.01
2022-08-16T17:33:20.811Z,27.88
2022-08-16T17:35:55.339Z,27.88
2022-08-16T17:38:38.811Z,27.66
2022-08-16T17:39:28.531Z,28.00
2022-08-16T17:41:12.654Z,27.31
2022-08-16T17:43:44.407Z,27.27
2022-08-16T17:46:41.375Z,27.21
2022-08-16T17:49:03.863Z,26.93
2022-08-16T17:51:36.216Z,26.81
2022-08-16T17:54:04.441Z,26.57
2022-08-16T17:56:32.461Z,26.26
2022-08-16T17:59:01.108Z,26.28
2022-08-16T18:01:29.420Z,26.24
2022-08-16T18:04:06.638Z,26.02
2022-08-16T18:06:38.462Z,25.83
2022-08-16T18:09:06.965Z,25.65
2022-08-16T18:12:44.876Z,25.67
2022-08-16T18:16:33.555Z,25.63
2022-08-16T18:20:14.739Z,25.26
2022-08-16T18:23:56.622Z,25.12
2022-08-16T18:27:38.220Z,24.97
2022-08-16T18:31:19.677Z,24.58
2022-08-16T18:35:03.331Z,24.57
2022-08-16T18:38:44.765Z,24.55
2022-08-16T18:42:26.641Z,24.44
2022-08-16T18:46:07.910Z,24.30
2022-08-16T18:49:49.441Z,24.13
2022-08-16T18:53:30.682Z,23.92
2022-08-16T18:57:12.395Z,23.79
2022-08-16T19:00:56.453Z,23.55
2022-08-16T19:04:56.876Z,23.42
2022-08-16T19:08:39.978Z,23.24
2022-08-16T19:12:37.970Z,23.09
2022-08-16T19:16:23.758Z,22.90
2022-08-16T19:20:10.392Z,22.72
2022-08-16T19:23:52.820Z,22.67
2022-08-16T19:27:33.999Z,22.57
2022-08-16T19:31:17.303Z,22.61
2022-08-16T19:34:58.792Z,22.64
2022-08-16T19:38:40.285Z,22.68
2022-08-16T19:42:23.486Z,22.72
2022-08-16T19:46:05.343Z,22.80
2022-08-16T19:49:46.821Z,22.78
2022-08-16T19:53:28.161Z,22.79
2022-08-16T19:57:09.996Z,22.86
2022-08-16T20:00:52.371Z,23.09
2022-08-16T20:04:37.615Z,23.19
2022-08-16T20:08:18.787Z,22.92
2022-08-16T20:11:18.676Z,22.73
2022-08-16T20:13:46.180Z,22.79
2022-08-16T20:16:14.462Z,22.65
2022-08-16T20:18:42.235Z,22.64
2022-08-16T20:21:09.827Z,22.28
2022-08-16T20:23:37.333Z,22.29
2022-08-16T20:26:04.826Z,22.15
2022-08-16T20:28:52.075Z,22.03
2022-08-16T20:31:21.285Z,21.97
2022-08-16T20:33:48.933Z,21.85
2022-08-16T20:36:16.866Z,21.69
2022-08-16T20:38:46.652Z,21.64
2022-08-16T20:41:14.371Z,21.62
2022-08-16T20:43:43.365Z,21.53
2022-08-16T20:46:10.994Z,21.55
2022-08-16T20:48:38.501Z,21.59
2022-08-16T20:51:10.347Z,21.49
2022-08-16T20:53:38.241Z,21.39
2022-08-16T20:56:06.734Z,21.33
2022-08-16T20:58:34.591Z,21.31
2022-08-16T21:01:04.178Z,21.08
2022-08-16T21:03:31.921Z,21.05
2022-08-16T21:06:01.900Z,21.02
2022-08-16T21:08:51.952Z,20.85
2022-08-16T21:11:17.833Z,20.71
2022-08-16T21:13:45.399Z,20.67
2022-08-16T21:16:16.348Z,20.41
2022-08-16T21:18:43.958Z,20.33
2022-08-16T21:21:14.149Z,20.45
2022-08-16T21:23:41.770Z,20.45
2022-08-16T21:26:11.150Z,20.41
2022-08-16T21:28:42.754Z,20.35
2022-08-16T21:31:11.489Z,20.36
2022-08-16T21:33:40.728Z,20.22
2022-08-16T21:36:09.098Z,20.04
2022-08-16T21:38:36.750Z,20.15
2022-08-16T21:41:08.121Z,20.19
2022-08-16T21:43:35.847Z,20.12
2022-08-16T21:46:05.922Z,20.07
2022-08-16T21:48:36.007Z,20.06
2022-08-16T21:51:06.070Z,19.96
2022-08-16T21:53:33.977Z,20.00
2022-08-16T21:56:01.901Z,20.01
2022-08-16T21:58:29.934Z,20.07
2022-08-16T22:00:57.808Z,20.03
2022-08-16T22:03:25.377Z,20.04
2022-08-16T22:06:13.590Z,19.98
2022-08-16T22:08:49.306Z,19.83
2022-08-16T22:11:19.261Z,19.75
2022-08-16T22:13:57.674Z,19.64
2022-08-16T22:16:27.587Z,19.59
2022-08-16T22:18:55.231Z,19.54
2022-08-16T22:21:22.813Z,19.58
2022-08-16T22:23:56.885Z,19.58
2022-08-16T22:26:31.046Z,19.54
2022-08-16T22:29:00.410Z,19.47
2022-08-16T22:31:28.026Z,19.47
2022-08-16T22:33:56.462Z,19.43
2022-08-16T22:36:24.394Z,19.40
2022-08-16T22:38:58.741Z,19.37
2022-08-16T22:41:27.589Z,19.31
2022-08-16T22:43:55.523Z,19.35
2022-08-16T22:46:23.149Z,19.33
2022-08-16T22:48:51.017Z,19.31
2022-08-16T22:51:18.746Z,19.25
2022-08-16T22:53:46.598Z,19.19
2022-08-16T22:56:15.884Z,19.20
2022-08-16T22:58:43.690Z,19.19
2022-08-16T23:01:12.013Z,19.07
2022-08-16T23:03:40.155Z,18.97
2022-08-16T23:06:08.626Z,18.86
2022-08-16T23:08:40.963Z,18.15
2022-08-16T23:11:10.933Z,18.24
2022-08-16T23:13:52.804Z,18.34
2022-08-16T23:16:29.202Z,18.60
2022-08-16T23:19:02.078Z,18.73
2022-08-16T23:21:30.018Z,18.75
2022-08-16T23:23:57.571Z,18.69
2022-08-16T23:26:36.555Z,18.62
2022-08-16T23:29:22.557Z,18.69
2022-08-16T23:31:54.521Z,18.60
2022-08-16T23:34:22.351Z,18.58
2022-08-16T23:36:52.727Z,18.54
2022-08-16T23:39:20.282Z,18.47
2022-08-16T23:41:47.897Z,18.52
2022-08-16T23:44:57.832Z,18.48
2022-08-16T23:47:05.183Z,18.47
2022-08-16T23:49:57.018Z,18.26
2022-08-16T23:52:53.944Z,18.27
2022-08-16T23:55:08.770Z,18.32
2022-08-16T23:57:36.354Z,18.15
